Meteo Giornale » Osservazioni meteo Germania » Illesheim
ore: 21:55 - Osservazioni Meteo Illesheim
Lat. 49° 28' N Lon. 10° 23' E Alt. 325 metri s.l.m.
18 °C
Sereno
Temp. 24 Ore
0 °C
25 °C
Ovest/Sud-Ovest
25.9 Km/h
Dew point 12 °C
Umidità 67 %
Visibilità 10 Km
Il sole sorge alle ore 06:32
Il sole tramonta alle ore 20:04
| Data e Ora | Cielo e Fenomeni | T °C | DP °C | Um. % | Pres. hPa | Vis. km | Vento km/h | |
|---|---|---|---|---|---|---|---|---|
| Oggi h: 21:55 | Sereno | 18 | 12 | 67 | 1018 | 10 | O/SO 25.9 | |
| Oggi h: 20:55 | Sereno | 18 | 13 | 72 | 1018 | 10 | O/SO 18.5 | |
| Oggi h: 19:13 | Sereno | 0 | 0 | 93 | 1016 | 10 | N 0 | |
| Oggi h: 18:55 | Pioviggine | 19 | 12 | 63 | 1017 | 0 | O/SO 25.9 | |
| Oggi h: 18:54 | Pioviggine | 19 | 12 | 63 | 1017 | 0 | O/SO 27.8 | |
| Oggi h: 18:52 | Sereno | 0 | 0 | 88 | 1017 | 0 | O/SO 31.5 | |
| Oggi h: 18:40 | Pioggia | 22 | 10 | 46 | 1016 | 0 | N 0 | |
| Oggi h: 16:55 | Sereno | 23 | 9 | 40 | 1015 | 10 | O/SO 33.3 | |
| Oggi h: 15:55 | Sereno | 25 | 11 | 41 | 1016 | 10 | O 31.5 | |
| Oggi h: 14:55 | Poco Nuvoloso | 24 | 11 | 43 | 1016 | 10 | O/SO 27.8 | |
| Oggi h: 13:55 | Poco Nuvoloso | 23 | 12 | 49 | 1016 | 10 | O/SO 33.3 | |
| Oggi h: 12:55 | Poco Nuvoloso | 22 | 12 | 53 | 1016 | 10 | O/SO 25.9 | |
| Oggi h: 11:55 | Sereno | 22 | 14 | 60 | 1016 | 10 | O 25.9 | |
| Oggi h: 11:25 | Molto Nuvoloso | 21 | 14 | 64 | 1016 | 10 | O/SO 25.9 | |
| Oggi h: 11:10 | Molto Nuvoloso | 20 | 14 | 68 | 1016 | 10 | O/SO 22.2 | |
| Oggi h: 10:55 | Molto Nuvoloso | 19 | 14 | 72 | 1016 | 10 | O 18.5 | |
| Oggi h: 09:55 | Sereno | 20 | 14 | 68 | 1016 | 10 | O 20.3 | |
| Oggi h: 08:55 | Sereno | 19 | 15 | 77 | 1015 | 10 | O/SO 24 | |
| Oggi h: 07:55 | Poco Nuvoloso | 18 | 15 | 82 | 1015 | 10 | O/SO 22.2 | |
| Oggi h: 07:18 | Molto Nuvoloso | 18 | 15 | 82 | 1015 | 10 | O/SO 20.3 | |
| Oggi h: 07:03 | Molto Nuvoloso | 18 | 16 | 88 | 1015 | 10 | O/SO 27.8 | |
| Oggi h: 06:55 | Pioggia | 18 | 16 | 88 | 1014 | 10 | O/SO 22.2 | |
| Oggi h: 06:51 | Pioggia | 18 | 16 | 88 | 1014 | 10 | O/SO 24 | |
| Oggi h: 06:40 | Coperto | 18 | 16 | 88 | 1014 | 10 | O/SO 24 | |
| Oggi h: 05:55 | Molto Nuvoloso | 18 | 16 | 88 | 1013 | 10 | SO 22.2 | |
| Oggi h: 05:41 | Molto Nuvoloso | 18 | 16 | 88 | 1014 | 10 | O/SO 16.7 | |
| Oggi h: 05:18 | Pioviggine | 17 | 15 | 88 | 1013 | 10 | SO 13 | |
| Oggi h: 04:55 | Nuvoloso | 17 | 15 | 88 | 1013 | 10 | SO 11.1 | |
| Oggi h: 04:38 | Temporale nelle vicinanze | 17 | 15 | 88 | 1013 | 10 | S/SO 9.3 | |
| Oggi h: 04:29 | Pioggia | 17 | 16 | 93 | 1013 | 10 | S 7.4 | |
| Oggi h: 04:28 | Coperto | 17 | 15 | 88 | 1013 | 10 | S 7.4 | |
| Oggi h: 04:16 | Temporale nelle vicinanze Pioggia | 17 | 15 | 88 | 1014 | 10 | O/SO 14.8 | |
| Oggi h: 04:02 | Temporale Pioggia | 17 | 15 | 88 | 1014 | 4 | O 13 | |
| Oggi h: 03:55 | Temporale nelle vicinanze Pioggia | 17 | 15 | 88 | 1014 | 4 | O/SO 18.5 | |
| Oggi h: 03:53 | Temporale nelle vicinanze Pioggia | 17 | 15 | 88 | 1014 | 4 | O/SO 18.5 | |
| Oggi h: 03:49 | Temporale | 17 | 15 | 88 | 1013 | 8 | O/SO 16.7 | |
| Oggi h: 03:39 | Pioggia | 17 | 15 | 88 | 1012 | 10 | N 0 | |
| Oggi h: 02:55 | Nuvoloso | 16 | 13 | 82 | 1012 | 10 | N 0 | |
| Oggi h: 01:55 | Molto Nuvoloso | 16 | 14 | 87 | 1014 | 10 | N 0 | |
| Oggi h: 00:55 | Sereno | 15 | 14 | 93 | 1014 | 10 | N 0 | |
| Ieri h: 23:55 | Nuvoloso | 15 | 12 | 82 | 1014 | 10 | N 0 | |



